Ware River @ Barre Plains, Ma

Ware River at Barre Plains
 Total Drainage Area: 115 sq. miles 
 Drainage Area Controlled by Corps Dams: 55 sq. miles (48%) 
 Warning Flow/Stage: 530 cfs / 2.5 feet 
 Flood Flow/Stage: 1,020 cfs / 4.0 feet 
Date Time
(Eastern)
Stage
(ft)
Flow
(cfs)
CSM
(cfs / sq. mi.)
Jan-31 01:30 pm 2.79 546 4.8
Jan-31 12:30 pm 2.79 546 4.8
Jan-31 11:30 am 2.81 551 4.8
Jan-31 10:30 am 2.82 554 4.8
Jan-31 09:30 am 2.83 556 4.8
Jan-31 08:30 am 2.84 559 4.9
Jan-31 07:30 am 2.83 556 4.8
Jan-31 06:30 am 2.83 556 4.8
Jan-31 05:30 am 2.84 559 4.9
Jan-31 04:30 am 2.86 564 4.9
Jan-31 03:30 am 2.86 564 4.9
Jan-31 02:30 am 2.77 541 4.7
Jan-31 01:30 am 2.76 538 4.7
Jan-31 12:30 am 2.79 546 4.8
Jan-30 11:30 pm 2.73 531 4.6
Jan-30 10:30 pm 2.73 531 4.6
Jan-30 09:30 pm 2.69 520 4.5
Jan-30 08:30 pm 2.68 518 4.5
Jan-30 07:30 pm 2.63 505 4.4
Jan-30 06:30 pm 2.54 483 4.2
Jan-30 05:30 pm 2.50 473 4.1
Jan-30 04:30 pm 2.47 466 4.1
Jan-30 03:30 pm 2.48 468 4.1
Jan-30 02:30 pm 2.47 466 4.1
Jan-30 01:30 pm 2.47 466 4.1
Report Generated January 31, 2023 02:22 pm